Daily Meteorological Summary

Last 30 Days

Daily Data | America/Los_Angeles
as of 5/22/22 4:53 PM PDT
Date Daily Max Temp (°F) Time of Max Temp Daily Min Temp (°F) Time of Min Temp Daily Rain (In) Seasonal Rainfall (In) Wind Spd (mph) Daily Max Wind (mph) Time of Max Wind Max Wind Dir (°) Dew Pt (°F) Max RH (%) Min RH (%) Upper Max Temp (°F) Max Upper Temp Time Upper Min Temp (°F) Min Upper Temp Time Max Temp Inversion (°F) Time of Max Temp Inversion Min Temp Inversion (°F) Time of Min Temp Inversion Max 1 Min Rain (In) Max 1 Min Rain Time Max 15 Min Rain (In) Max 15 Min Precip Time Max 60 Min Rain (In) Max 60 Min Rain Time Storm Total (In) MinBV Day (V)
5/21/22 89.1 1552 46.2 0606 0.00 9.09 2.0 13.2 1456 WSW | 245 33.6 74 10 84.9 1625 50.4 0600 12.8 0439 -7.3 1149 - - - - - - - 12.4
5/20/22 83.8 1606 52.0 0057 0.00 9.09 2.7 14.0 1320 WSW | 251 36.7 63 13 80.8 1804 57.6 0059 10.0 2237 -7.1 1312 - - - - - - - 12.5
5/19/22 97.2 1558 57.8 0601 0.00 9.09 2.7 18.0 1209 S | 186 49.3 82 18 93.6 1743 62.3 0445 12.5 0241 -6.7 1422 - - - - - - - 12.5
5/18/22 94.2 1533 53.9 0611 0.00 9.09 2.0 12.1 1012 WSW | 250 49.2 86 18 91.4 1759 57.9 0607 11.4 0309 -6.4 1426 - - - - - - - 12.5
5/17/22 87.6 1605 51.7 0613 0.00 9.09 2.3 12.7 1002 SSW | 197 48.2 86 22 84.9 1658 54.1 0606 10.2 2204 -6.6 1258 - - - - - - - 12.4
5/16/22 88.5 1601 58.1 0547 0.00 9.09 2.8 13.8 0932 S | 172 45.0 71 17 86.7 1650 59.6 0620 10.6 2131 -5.7 1341 - - - - - - - 12.4
5/15/22 94.8 1450 54.8 0546 0.00 9.09 2.1 17.1 1209 SW | 231 49.0 83 15 92.4 1726 60.0 0527 11.9 0543 -7.1 1338 - - - - - - - 12.5
5/14/22 91.9 1519 49.9 0441 0.00 9.09 2.2 16.7 1030 SW | 221 45.4 76 19 89.2 1733 53.6 0605 12.1 0322 -6.7 1332 - - - - - - - 12.4
5/13/22 84.2 1612 41.5 0606 0.00 9.09 2.2 14.7 1043 SSW | 200 37.1 78 17 81.9 1716 45.6 0532 11.0 0056 -7.4 1447 - - - - - - - 12.4
5/12/22 78.2 1514 39.1 0557 0.00 9.09 2.0 13.4 1751 W | 281 33.8 84 18 75.8 1804 44.3 0531 12.1 0410 -6.8 1341 - - - - - - - 12.4
5/11/22 72.1 1557 39.6 0547 0.00 9.09 2.7 16.2 1625 WNW | 284 30.8 80 14 69.1 1556 42.6 0601 9.6 0017 -6.9 1142 - - - - - - - 12.4
5/10/22 70.4 1452 42.5 0336 0.00 9.09 2.6 14.0 1735 WNW | 290 30.9 76 17 65.8 1724 45.0 0554 6.8 2119 -7.1 1452 - - - - - - - 12.4
5/9/22 68.3 1603 40.6 0554 0.00 9.09 2.6 13.6 1656 W | 276 31.5 76 15 65.2 1729 43.8 0615 10.4 2150 -6.8 1216 - - - - - - - 12.4
5/8/22 73.5 1514 47.1 0541 0.00 9.09 3.8 17.8 1923 NNW | 327 34.4 80 14 69.5 1610 49.0 0626 3.8 0427 -7.3 1211 - - - - - - - 12.4
5/7/22 80.6 1515 53.6 2336 0.00 9.09 2.4 14.9 1644 W | 263 44.9 82 22 76.8 1607 56.7 0624 8.0 2227 -6.7 1503 - - - - - - - 12.5
5/6/22 87.6 1602 51.5 0632 0.00 9.09 2.5 14.2 1054 SW | 216 47.8 82 22 83.9 1715 55.5 0641 7.8 2145 -6.5 1440 - - - - - - - 12.4
5/5/22 93.9 1431 51.2 0616 0.00 9.09 2.2 14.0 1623 WNW | 294 41.0 80 12 90.5 1605 56.6 0612 14.4 0528 -6.9 1225 - - - - - - - 12.4
5/4/22 91.7 1552 47.4 0615 0.00 9.09 1.4 9.9 1502 W | 281 42.9 89 12 88.8 1714 50.7 0610 12.1 2047 -6.7 1255 - - - - - - - 12.4
5/3/22 80.6 1525 48.2 0620 0.00 9.09 2.5 14.2 1051 SSW | 209 42.2 80 23 78.4 1640 50.5 0616 10.2 2213 -6.2 1440 - - - - - - - 12.4
5/2/22 85.1 1517 48.2 0612 0.00 9.09 2.7 15.3 1735 WSW | 254 42.5 86 16 82.7 1514 52.0 0602 10.2 0410 -5.8 1139 - - - - - - - 12.4
5/1/22 81.2 1554 48.5 0625 0.00 9.09 2.4 14.0 1041 SW | 232 44.2 83 23 77.3 1745 51.2 0643 9.4 2333 -6.7 1528 - - - - - - - 12.4
4/30/22 85.2 1544 45.2 0627 0.00 9.09 1.8 11.4 1758 WNW | 300 41.7 89 18 82.0 1649 49.4 0609 12.6 0213 -6.4 1406 - - - - - - - 12.4
4/29/22 78.7 1601 41.8 0629 0.00 9.09 2.2 13.4 1116 SW | 234 40.1 87 23 76.2 1729 44.6 0624 10.9 2050 -6.3 1333 - - - - - - - 12.4
4/28/22 76.9 1521 45.5 0621 0.00 9.09 3.0 20.4 1618 W | 274 35.1 76 15 73.1 1552 47.9 0645 8.8 0115 -6.8 1409 - - - - - - - 12.4
4/27/22 83.1 1535 47.7 0621 0.00 9.09 2.2 14.0 1043 SSW | 211 40.8 88 17 79.2 1704 50.4 0503 11.1 2208 -6.4 1535 - - - - - - - 12.4
4/26/22 80.8 1400 49.1 0508 0.00 9.09 2.4 16.4 1036 SW | 234 45.7 86 26 78.8 1705 52.0 0617 10.2 0430 -4.9 1118 - - - - - - - 12.4
4/25/22 91.1 1534 46.8 0610 0.00 9.09 1.7 11.2 1542 WNW | 299 41.8 92 12 86.8 1620 51.1 0643 11.8 2039 -6.8 1416 - - - - - - - 12.4
4/24/22 83.4 1549 44.9 0533 0.00 9.09 2.1 14.7 1044 SSW | 213 43.4 95 19 80.2 1653 47.3 0632 9.3 0603 -7.0 1226 - - - - - - - 12.4
4/23/22 76.2 1558 40.7 0610 0.00 9.09 1.9 12.9 1001 SSW | 204 43.3 95 25 72.3 1705 43.5 0622 8.4 2045 -6.3 1506 - - - - - - 0.29 12.4
4/22/22 69.2 1551 46.0 0058 0.18 9.09 2.3 16.0 1716 NW | 326 45.7 95 35 66.1 1710 48.8 0059 6.4 0006 -6.0 1141 0.01 0954 0.04 0307 0.09 0418 0.29 12.4
Max 97.2 - 58.1 - 0.18 9.09 3.8 20.4 - - 49.3 95 35 93.6 - 62.3 - 14.4 - -4.9 - - - - - - - 0.29 12.5
Avg - - - - - - 2.3 - - - 41.3 - - - - - - - - - - - - - - - - 0.29 -
Min 68.3 - 39.1 - 0.00 9.09 1.4 9.9 - - 30.8 63 10 65.2 - 42.6 - 3.8 - -7.4 - - - - - - - 0.29 12.4